Huvudsida
METAR-TAF:

METAR-TAF

Flygplatser :

Volgograd, Ryssland

latitud: 48-47N, longitud: 044-22E, höjd: 145 m

Aktuellt väderrapport

Denna rapport gjordes för 34 minuter sedan, klockan 20:00 UTC
Vind 6 kt från ost/sydost
Temperatur -6°C
Fuktighet 73%
Tryck 1026 hPa
Sikt 10 km eller mer
Inga moln under 1 500 m eller inga cumulonimbus

METAR: URWW 192000Z 11003MPS CAVOK M06/M10 Q1026 R06/010070 NOSIG

Tid: 23:34 (20:34 UTC)

Väderprognos

Denna rapport gjordes för 3 timmar och 36 minuter sedan, klockan 16:58 UTC
Prognos gäller från 19 kl. 18 UTC till 20 kl. 03 UTC
Vind 6 kt från ost i byarna ända upp till 16 kt
Sikt 10 km eller mer
Spridda moln på en höjd av 1500 ft
Brutna moln på en höjd av 10000 ft
Temporärt
från 19 kl. 18 UTC till 20 kl. 03 UTC
Vind 6 kt från ost/sydost i byarna ända upp till 16 kt
Sikt: 5000 m
rök

TAF: URWW 191658Z 1918/2003 09003G08MPS 9999 SCT015 BKN100 TEMPO 1918/2003 12003G08MPS 5000 FU

Aktuella väderrapporter och prognoser från 4000 flygplatser (METAR- och TAF-rapporter).

De tillgängliga stationerna syns som gula och röda prickar på kartan.

För musen över prickarna för att se namnen på stationerna.

Klicka sedan för att få väderrapporter och prognoser.

För att ändra kartan: Klicka på de gröna knapparna med ett svart kors på för att zooma in; den gröna knappen med ett streck på för att zooma ut; eller på de gröna pilarna för angränsande kartor.


METAR-TAF: